Time;durP1;ratioP1;P1;durP2;ratioP2;P2;SDS_P1;SDS_P2;PMS_P1;PMS_P2;Temp;Humidity;BMP_temperature;BMP_pressure;BME280_temperature;BME280_humidity;BME280_pressure;Samples;Min_cycle;Max_cycle;Signal;HPM_P1;HPM_P2
2022/06/13 00:05:00;;;;;;;41.70;38.43;;;;;;;15.10;100.00;102383.70;2002444;71;32846;-73
2022/06/13 00:10:45;;;;;;;42.53;39.87;;;;;;;15.10;100.00;102390.70;2016692;71;32913;-72
2022/06/13 00:16:29;;;;;;;43.10;40.40;;;;;;;15.03;100.00;102388.71;2018494;71;32914;-73
2022/06/13 00:22:13;;;;;;;43.97;40.97;;;;;;;15.16;100.00;102382.56;1996997;71;32864;-74
2022/06/13 00:27:57;;;;;;;44.77;41.83;;;;;;;15.01;100.00;102385.37;2004031;71;32847;-73
2022/06/13 00:33:43;;;;;;;47.63;44.43;;;;;;;14.87;100.00;102381.41;2000779;71;32940;-72
2022/06/13 00:39:35;;;;;;;48.53;45.33;;;;;;;14.87;100.00;102386.45;2011011;71;32911;-73
2022/06/13 00:45:26;;;;;;;50.27;46.87;;;;;;;14.81;100.00;102387.55;2016606;71;33367;-73
2022/06/13 00:51:12;;;;;;;50.93;47.33;;;;;;;14.71;100.00;102385.30;2008078;71;32825;-72
2022/06/13 00:56:57;;;;;;;52.57;48.90;;;;;;;14.65;100.00;102383.59;1991613;71;32831;-72
2022/06/13 01:02:45;;;;;;;51.10;47.50;;;;;;;14.64;100.00;102385.55;1994829;71;32837;-73
2022/06/13 01:11:40;;;;;;;49.70;46.23;;;;;;;14.48;100.00;102378.23;2052978;69;32704;-73
2022/06/13 01:17:49;;;;;;;50.73;47.23;;;;;;;14.44;100.00;102379.89;2013052;71;32871;-72
2022/06/13 01:20:28;;;;;;;49.63;46.33;;;;;;;14.45;100.00;102383.82;1977832;72;26705;-72
2022/06/13 01:23:53;;;;;;;49.47;46.17;;;;;;;14.43;100.00;102394.98;1981661;72;26219;-72
2022/06/13 01:26:43;;;;;;;53.63;50.20;;;;;;;14.45;100.00;102392.21;1969868;72;26223;-73
2022/06/13 01:32:56;;;;;;;55.23;51.40;;;;;;;14.20;100.00;102380.89;2008057;71;32863;-73
2022/06/13 01:39:12;;;;;;;58.13;54.23;;;;;;;14.21;100.00;102385.34;1998391;71;32865;-72
2022/06/13 01:45:03;;;;;;;58.00;53.53;;;;;;;14.19;100.00;102389.54;2015024;71;32814;-74
2022/06/13 01:47:37;;;;;;;56.93;52.93;;;;;;;14.07;100.00;102389.21;1962677;72;26228;-74
2022/06/13 01:50:12;;;;;;;59.40;55.50;;;;;;;14.09;100.00;102389.77;1972437;72;26403;-74
2022/06/13 01:52:46;;;;;;;58.63;54.73;;;;;;;14.02;100.00;102385.54;1976632;72;26666;-74
2022/06/13 01:55:19;;;;;;;60.43;56.20;;;;;;;13.99;100.00;102398.66;1981196;72;26291;-74
2022/06/13 01:57:53;;;;;;;58.67;54.67;;;;;;;14.01;100.00;102393.63;1984900;72;26683;-74
2022/06/13 02:00:26;;;;;;;57.27;53.90;;;;;;;13.96;100.00;102394.44;1988041;72;26309;-73
2022/06/13 02:09:23;;;;;;;56.57;53.17;;;;;;;14.02;100.00;102385.54;2051176;69;32738;-71
2022/06/13 02:11:56;;;;;;;57.83;54.10;;;;;;;13.95;100.00;102397.49;1944159;72;26201;-72
2022/06/13 02:14:32;;;;;;;54.13;50.63;;;;;;;13.94;100.00;102400.02;2011245;70;26709;-73
2022/06/13 02:20:21;;;;;;;56.90;53.17;;;;;;;13.90;100.00;102389.95;2013714;71;33331;-73
2022/06/13 02:26:10;;;;;;;55.90;52.07;;;;;;;13.85;100.00;102395.50;1991491;71;33330;-73
2022/06/13 02:28:44;;;;;;;56.63;53.00;;;;;;;13.82;100.00;102391.02;1971696;72;26653;-72
2022/06/13 02:34:33;;;;;;;56.93;53.30;;;;;;;13.79;100.00;102384.55;2011765;71;32733;-72
2022/06/13 02:40:22;;;;;;;54.83;51.27;;;;;;;13.62;100.00;102371.59;2009575;71;33344;-72
2022/06/13 02:46:12;;;;;;;56.20;52.77;;;;;;;13.60;100.00;102375.23;2009434;71;32889;-72
2022/06/13 02:52:06;;;;;;;55.93;52.43;;;;;;;13.58;100.00;102386.36;1991512;71;32800;-72
2022/06/13 02:54:39;;;;;;;54.20;51.00;;;;;;;13.54;100.00;102391.64;1967441;72;26227;-73
2022/06/13 03:00:34;;;;;;;56.40;53.00;;;;;;;13.49;100.00;102387.97;2018454;71;32994;-72
2022/06/13 03:03:13;;;;;;;56.63;53.03;;;;;;;13.41;100.00;102398.23;1976204;72;26307;-73
2022/06/13 03:09:08;;;;;;;58.90;55.20;;;;;;;13.41;100.00;102404.66;2014987;71;32887;-72
2022/06/13 03:15:09;;;;;;;61.90;57.80;;;;;;;13.36;100.00;102407.95;2013009;71;32813;-73
2022/06/13 03:17:51;;;;;;;61.27;57.07;;;;;;;13.26;100.00;102420.44;1980638;72;26294;-73
2022/06/13 03:20:27;;;;;;;61.13;56.83;;;;;;;13.20;100.00;102422.33;1967607;72;26224;-74
2022/06/13 03:26:15;;;;;;;61.00;56.70;;;;;;;13.14;100.00;102429.80;2002168;71;32998;-74
2022/06/13 03:28:49;;;;;;;62.73;58.53;;;;;;;13.26;100.00;102432.45;1982496;72;26286;-74
2022/06/13 03:31:22;;;;;;;63.60;59.50;;;;;;;13.13;100.00;102425.91;1978730;72;26741;-74
2022/06/13 03:37:12;;;;;;;61.73;57.60;;;;;;;13.12;100.00;102425.05;2006229;71;32738;-74
2022/06/13 03:43:01;;;;;;;63.70;59.40;;;;;;;13.15;100.00;102420.33;2014765;71;33483;-72
2022/06/13 03:52:00;;;;;;;65.20;61.07;;;;;;;12.91;100.00;102431.50;2039974;69;32604;-73
2022/06/13 03:57:50;;;;;;;63.87;59.10;;;;;;;12.71;100.00;102427.91;2002449;71;32777;-74
2022/06/13 04:03:27;;;;;;;62.87;58.57;;;;;;;12.86;100.00;102431.98;2009561;71;32860;-73
2022/06/13 04:09:16;;;;;;;62.27;57.57;;;;;;;12.88;100.00;102429.21;2003897;71;33405;-74
2022/06/13 04:19:26;;;;;;;64.03;59.43;;;;;;;12.95;100.00;102457.77;1996975;71;32756;-73
2022/06/13 04:22:01;;;;;;;63.23;58.73;;;;;;;12.97;100.00;102461.11;1975929;72;26204;-73
2022/06/13 04:24:35;;;;;;;63.50;59.13;;;;;;;12.92;100.00;102458.27;1962404;72;26283;-73
2022/06/13 04:27:09;;;;;;;62.67;58.00;;;;;;;12.92;100.00;102458.84;1971992;72;26663;-73
2022/06/13 04:32:58;;;;;;;63.93;59.33;;;;;;;13.04;100.00;102451.16;2000754;71;32838;-74
2022/06/13 04:38:46;;;;;;;64.67;60.27;;;;;;;13.00;100.00;102468.98;1996905;71;32883;-74
2022/06/13 04:44:34;;;;;;;60.53;56.03;;;;;;;13.04;100.00;102473.48;2002581;71;32757;-75
2022/06/13 04:50:23;;;;;;;61.40;57.00;;;;;;;13.15;100.00;102478.93;2007833;71;33296;-73
2022/06/13 04:56:08;;;;;;;62.47;57.87;;;;;;;13.07;100.00;102477.13;2014885;71;33332;-75
2022/06/13 05:01:56;;;;;;;60.57;56.20;;;;;;;13.15;100.00;102485.06;2009594;71;32923;-73
2022/06/13 05:07:42;;;;;;;61.87;57.67;;;;;;;13.15;100.00;102490.09;2007652;71;32883;-74
2022/06/13 05:13:28;;;;;;;59.10;55.00;;;;;;;13.14;100.00;102489.80;1999242;70;32788;-73
2022/06/13 05:19:29;;;;;;;59.67;55.57;;;;;;;13.26;100.00;102501.37;2004636;71;33317;-75
2022/06/13 05:22:03;;;;;;;59.80;55.70;;;;;;;13.36;100.00;102502.30;1966255;72;26293;-75
2022/06/13 05:28:18;;;;;;;60.37;56.27;;;;;;;13.38;100.00;102499.26;2014856;71;32848;-74
2022/06/13 05:34:06;;;;;;;61.50;57.17;;;;;;;13.38;100.00;102494.52;2010045;71;33300;-76
2022/06/13 05:39:50;;;;;;;59.93;55.93;;;;;;;13.43;100.00;102498.77;2013175;71;32843;-73
2022/06/13 05:45:35;;;;;;;59.90;55.70;;;;;;;13.45;100.00;102501.27;2014632;70;33352;-73
2022/06/13 05:51:20;;;;;;;60.83;56.63;;;;;;;13.48;100.00;102504.92;2000698;71;33322;-74
2022/06/13 05:57:05;;;;;;;60.47;56.50;;;;;;;13.61;100.00;102506.73;2005744;71;32793;-74
2022/06/13 06:02:50;;;;;;;58.53;54.33;;;;;;;13.72;100.00;102512.42;2011238;71;32852;-72
2022/06/13 06:08:36;;;;;;;58.03;54.13;;;;;;;13.78;100.00;102518.36;1998409;71;33429;-73
2022/06/13 06:14:21;;;;;;;59.97;56.27;;;;;;;13.85;100.00;102532.38;2013218;70;32904;-73
2022/06/13 06:20:12;;;;;;;59.70;55.83;;;;;;;13.89;100.00;102522.91;2018821;71;33349;-73
2022/06/13 06:25:59;;;;;;;62.27;58.33;;;;;;;14.06;100.00;102525.84;2014787;71;33404;-73
2022/06/13 06:31:48;;;;;;;62.03;57.93;;;;;;;14.02;100.00;102532.23;1995313;71;32803;-74
2022/06/13 06:37:32;;;;;;;59.87;56.07;;;;;;;14.11;100.00;102533.42;2005726;70;32897;-74
2022/06/13 06:43:16;;;;;;;57.70;53.87;;;;;;;14.31;100.00;102539.16;2003802;71;32913;-73
2022/06/13 06:49:00;;;;;;;60.37;56.57;;;;;;;14.48;100.00;102548.80;1991578;71;33278;-73
2022/06/13 07:00:48;;;;;;;58.73;54.83;;;;;;;14.64;100.00;102541.33;2015210;71;33283;-74
2022/06/13 07:06:33;;;;;;;56.43;52.90;;;;;;;14.83;100.00;102539.77;2018421;71;32913;-74
2022/06/13 07:12:17;;;;;;;52.20;49.20;;;;;;;14.89;100.00;102540.90;2002599;71;32787;-76
2022/06/13 07:18:05;;;;;;;49.33;46.30;;;;;;;15.00;100.00;102544.05;2018593;70;33332;-80
2022/06/13 07:23:50;;;;;;;50.90;47.90;;;;;;;15.19;100.00;102542.97;2011358;71;32885;-76
2022/06/13 07:29:34;;;;;;;43.37;40.67;;;;;;;15.34;100.00;102538.83;2011324;71;32982;-76
2022/06/13 07:35:26;;;;;;;39.10;36.80;;;;;;;15.72;100.00;102535.28;1995029;71;32839;-79
2022/06/13 07:41:15;;;;;;;34.00;31.97;;;;;;;16.23;100.00;102535.55;2014702;71;32814;-76
2022/06/13 07:47:00;;;;;;;32.03;30.23;;;;;;;16.20;100.00;102540.89;2013271;71;33035;-76
2022/06/13 07:52:45;;;;;;;29.77;28.17;;;;;;;16.82;100.00;102527.85;2006267;71;33337;-77
2022/06/13 07:58:33;;;;;;;31.37;29.47;;;;;;;16.86;100.00;102532.35;2002388;71;32955;-76
2022/06/13 08:04:21;;;;;;;32.53;30.73;;;;;;;17.33;100.00;102522.01;2018907;71;33377;-79
2022/06/13 08:10:12;;;;;;;27.50;25.80;;;;;;;17.21;100.00;102526.55;1965071;72;32949;-79
2022/06/13 08:16:00;;;;;;;23.93;22.73;;;;;;;17.61;100.00;102538.98;1963850;72;30951;-79
2022/06/13 08:21:51;;;;;;;20.67;19.60;;;;;;;17.89;100.00;102530.89;1939764;73;31077;-80
2022/06/13 08:27:37;;;;;;;15.67;14.90;;;;;;;18.28;100.00;102532.22;2016759;71;32916;-77
2022/06/13 08:33:45;;;;;;;13.60;12.90;;;;;;;18.67;100.00;102527.34;1999110;71;30955;-76
2022/06/13 08:39:30;;;;;;;11.97;11.30;;;;;;;18.66;100.00;102522.84;2015150;71;30947;-76
2022/06/13 08:45:19;;;;;;;11.10;10.40;;;;;;;19.02;100.00;102522.68;1998965;71;33218;-76
2022/06/13 08:51:09;;;;;;;11.53;10.73;;;;;;;18.35;100.00;102534.14;2003890;70;31501;-76
2022/06/13 08:56:59;;;;;;;10.50;10.10;;;;;;;18.99;100.00;102519.63;1998370;71;31002;-76
2022/06/13 09:02:50;;;;;;;10.57;10.00;;;;;;;19.51;100.00;102524.29;1999003;71;30853;-76
2022/06/13 09:05:24;;;;;;;11.40;10.83;;;;;;;19.73;100.00;102528.70;1974564;72;24251;-75
2022/06/13 09:07:59;;;;;;;10.03;9.50;;;;;;;19.72;100.00;102531.29;1955878;72;24234;-76
2022/06/13 09:13:50;;;;;;;11.13;10.53;;;;;;;18.91;100.00;102533.79;2011120;71;30883;-77
2022/06/13 09:19:40;;;;;;;11.00;10.47;;;;;;;19.33;100.00;102530.72;2009413;71;30902;-76
2022/06/13 09:22:13;;;;;;;10.23;9.83;;;;;;;19.16;100.00;102538.84;1987091;72;26719;-76
2022/06/13 09:24:48;;;;;;;10.10;9.70;;;;;;;19.07;100.00;102540.09;1980296;72;24329;-76
2022/06/13 09:27:21;;;;;;;10.70;10.03;;;;;;;19.13;100.00;102541.67;1972888;72;24159;-76
2022/06/13 09:29:54;;;;;;;10.90;10.33;;;;;;;19.05;100.00;102541.78;1982945;72;24182;-76
2022/06/13 09:35:45;;;;;;;10.03;9.53;;;;;;;18.93;100.00;102534.34;1995238;71;30849;-75
2022/06/13 09:38:19;;;;;;;10.30;9.90;;;;;;;19.41;100.00;102546.38;1958779;72;24274;-75
2022/06/13 09:40:56;;;;;;;10.20;9.60;;;;;;;19.64;100.00;102544.64;1973450;72;24280;-75
2022/06/13 09:43:33;;;;;;;10.17;9.67;;;;;;;19.89;100.00;102540.60;1987161;72;24663;-75
2022/06/13 09:46:07;;;;;;;10.33;9.73;;;;;;;19.99;100.00;102538.44;1970839;72;24168;-75
2022/06/13 09:48:44;;;;;;;13.70;10.80;;;;;;;19.96;100.00;102546.67;1969997;72;24142;-76
2022/06/13 09:51:22;;;;;;;10.70;9.70;;;;;;;19.98;100.00;102551.45;1981778;72;26786;-75
2022/06/13 09:53:56;;;;;;;9.63;9.23;;;;;;;20.03;100.00;102549.94;1985704;72;24166;-75
2022/06/13 09:56:30;;;;;;;9.77;9.27;;;;;;;20.01;100.00;102552.23;1975618;72;26379;-75
2022/06/13 09:59:07;;;;;;;10.70;9.73;;;;;;;20.04;100.00;102553.03;1974989;72;24166;-75
2022/06/13 10:01:43;;;;;;;9.87;9.37;;;;;;;20.05;100.00;102557.53;1970599;72;24167;-75
2022/06/13 10:04:16;;;;;;;9.10;8.57;;;;;;;20.00;100.00;102554.22;1980616;72;24173;-76
2022/06/13 10:10:05;;;;;;;9.70;9.17;;;;;;;20.04;100.00;102554.44;2018590;71;30933;-76
2022/06/13 10:12:38;;;;;;;9.53;9.03;;;;;;;20.04;100.00;102561.49;1971065;72;24597;-76
2022/06/13 10:18:54;;;;;;;9.73;9.23;;;;;;;20.12;100.00;102548.66;2009443;71;30982;-75
2022/06/13 10:21:28;;;;;;;10.60;10.00;;;;;;;20.04;100.00;102552.19;1985419;72;24529;-75
2022/06/13 10:24:06;;;;;;;11.30;10.50;;;;;;;19.80;100.00;102555.13;1985803;72;24142;-74
2022/06/13 10:26:39;;;;;;;10.70;10.20;;;;;;;19.49;100.00;102558.41;1970145;72;24159;-75
2022/06/13 10:29:31;;;;;;;10.10;9.60;;;;;;;19.48;100.00;102554.47;1962658;72;26655;-76
2022/06/13 10:32:10;;;;;;;9.47;9.07;;;;;;;19.64;100.00;102548.87;1970049;72;24233;-76
2022/06/13 10:34:46;;;;;;;9.73;9.23;;;;;;;19.76;100.00;102542.22;1982383;72;24162;-79
2022/06/13 10:37:19;;;;;;;10.53;9.73;;;;;;;19.60;100.00;102546.39;1971292;72;24221;-77
2022/06/13 10:43:06;;;;;;;10.13;9.63;;;;;;;19.89;100.00;102553.30;2000877;71;30913;-79
2022/06/13 10:48:55;;;;;;;10.90;10.37;;;;;;;19.41;100.00;102551.17;2015129;71;30921;-77
2022/06/13 10:54:43;;;;;;;11.10;10.50;;;;;;;19.67;100.00;102544.05;2004514;71;30954;-77
2022/06/13 11:00:34;;;;;;;10.80;10.30;;;;;;;19.72;100.00;102541.73;2018548;71;30917;-77
2022/06/13 11:06:37;;;;;;;10.37;9.80;;;;;;;19.88;100.00;102542.58;1995370;71;30922;-76
2022/06/13 11:12:27;;;;;;;11.90;11.27;;;;;;;20.31;100.00;102539.61;2004044;71;31128;-76
2022/06/13 11:24:21;;;;;;;11.20;10.10;;;;;;;20.79;100.00;102525.98;2013282;71;30932;-78
2022/06/13 11:30:45;;;;;;;10.37;9.87;;;;;;;20.76;100.00;102520.94;2009535;71;33427;-78
2022/06/13 11:36:38;;;;;;;10.27;9.77;;;;;;;19.93;100.00;102522.76;2000820;70;30889;-77
2022/06/13 11:42:26;;;;;;;10.13;9.63;;;;;;;20.35;100.00;102516.10;2007784;71;30905;-78
2022/06/13 11:48:16;;;;;;;10.17;9.57;;;;;;;20.36;100.00;102510.73;2016367;71;30963;-76
2022/06/13 11:54:02;;;;;;;11.30;10.60;;;;;;;20.40;100.00;102505.29;1995259;71;30879;-76
2022/06/13 11:59:50;;;;;;;9.90;9.50;;;;;;;20.10;100.00;102510.89;1991580;71;33362;-77
2022/06/13 12:05:39;;;;;;;10.60;10.10;;;;;;;20.24;100.00;102510.33;2018568;71;30893;-79
2022/06/13 12:11:43;;;;;;;11.80;10.90;;;;;;;20.67;100.00;102499.64;2000642;71;31385;-79
2022/06/13 12:17:33;;;;;;;11.53;10.73;;;;;;;20.69;100.00;102498.77;2018593;71;30956;-80
2022/06/13 12:20:08;;;;;;;10.73;10.13;;;;;;;20.72;100.00;102501.53;1962454;72;24660;-77
2022/06/13 12:22:42;;;;;;;10.70;10.03;;;;;;;20.64;100.00;102497.45;1972583;72;24166;-77
2022/06/13 12:25:16;;;;;;;11.10;10.40;;;;;;;20.53;100.00;102500.81;1979556;72;24297;-80
2022/06/13 12:27:52;;;;;;;10.60;10.10;;;;;;;20.55;100.00;102502.16;1936781;73;24176;-79
2022/06/13 12:34:00;;;;;;;10.60;10.10;;;;;;;20.76;100.00;102483.64;1991611;71;31322;-79
2022/06/13 12:40:12;;;;;;;10.87;10.30;;;;;;;20.82;100.00;102486.63;2015109;71;31565;-78
2022/06/13 12:46:27;;;;;;;10.73;10.23;;;;;;;20.78;100.00;102490.41;2011510;71;30915;-79
2022/06/13 12:49:02;;;;;;;10.40;9.90;;;;;;;20.77;100.00;102488.72;1971575;72;24299;-78
2022/06/13 12:54:57;;;;;;;9.97;9.43;;;;;;;20.76;100.00;102482.23;2009849;71;30846;-79
2022/06/13 13:01:14;;;;;;;10.17;9.67;;;;;;;20.88;100.00;102487.34;2017020;71;31442;-79
2022/06/13 13:07:17;;;;;;;10.30;9.80;;;;;;;20.94;100.00;102483.84;2016569;71;30960;-79
2022/06/13 13:10:21;;;;;;;11.50;10.77;;;;;;;20.87;100.00;102482.30;1973396;72;24147;-79
2022/06/13 13:13:19;;;;;;;11.30;10.50;;;;;;;20.87;100.00;102482.30;1935638;72;24277;-79
2022/06/13 13:15:54;;;;;;;11.53;10.80;;;;;;;20.98;100.00;102484.88;1945913;72;24170;-79
2022/06/13 13:21:42;;;;;;;11.20;10.60;;;;;;;21.02;100.00;102474.62;2014677;71;30890;-79
2022/06/13 13:27:39;;;;;;;11.70;11.10;;;;;;;21.04;100.00;102481.64;2011275;71;30999;-79
2022/06/13 13:30:17;;;;;;;11.90;11.30;;;;;;;20.97;100.00;102476.14;1980066;72;24602;-79
2022/06/13 13:36:21;;;;;;;10.47;10.03;;;;;;;21.07;100.00;102470.27;2004273;71;30911;-79
2022/06/13 13:42:11;;;;;;;11.00;10.50;;;;;;;21.12;100.00;102456.91;2002708;71;31407;-78
2022/06/13 13:44:44;;;;;;;10.77;10.27;;;;;;;21.03;100.00;102460.75;1965636;72;24321;-78
2022/06/13 13:47:18;;;;;;;11.23;10.70;;;;;;;20.96;100.00;102460.36;1959320;72;24233;-78
2022/06/13 13:53:07;;;;;;;11.30;10.70;;;;;;;20.83;100.00;102454.42;2014907;71;31542;-78
2022/06/13 13:55:41;;;;;;;11.33;10.77;;;;;;;20.94;100.00;102449.36;1977006;72;24236;-79
2022/06/13 14:01:35;;;;;;;10.57;10.17;;;;;;;20.98;100.00;102437.69;2008310;71;32932;-80
2022/06/13 14:07:56;;;;;;;11.37;10.77;;;;;;;21.18;100.00;102442.89;1996514;71;30834;-81
2022/06/13 14:13:43;;;;;;;11.07;10.43;;;;;;;21.19;100.00;102442.31;2015021;71;31080;-79
2022/06/13 14:19:37;;;;;;;10.93;10.43;;;;;;;20.90;100.00;102439.84;2018616;71;31154;-81
2022/06/13 14:25:45;;;;;;;11.53;10.87;;;;;;;20.82;100.00;102442.02;2014832;71;31063;-81
2022/06/13 14:31:31;;;;;;;12.20;11.30;;;;;;;20.68;100.00;102444.84;2002208;70;30880;-80
2022/06/13 14:37:18;;;;;;;11.30;10.70;;;;;;;20.96;100.00;102436.34;2011173;71;31024;-79
2022/06/13 14:43:21;;;;;;;11.50;10.90;;;;;;;21.50;100.00;102429.13;2004027;71;30944;-79
2022/06/13 14:49:12;;;;;;;11.80;11.20;;;;;;;21.74;100.00;102416.05;2016768;71;31391;-81
2022/06/13 14:55:28;;;;;;;12.77;12.07;;;;;;;21.60;100.00;102409.66;2008050;71;33451;-78
2022/06/13 15:01:23;;;;;;;12.35;11.80;;;;;;;21.64;100.00;102407.28;2004194;71;30882;-79
2022/06/13 15:07:47;;;;;;;12.23;11.53;;;;;;;21.40;100.00;102407.32;1990068;70;30817;-78
2022/06/13 15:13:35;;;;;;;11.68;11.12;;;;;;;21.48;100.00;102392.44;2009677;71;30851;-79
2022/06/13 15:19:25;;;;;;;11.63;11.00;;;;;;;21.68;100.00;102380.02;2016651;71;30893;-80
2022/06/13 15:25:10;;;;;;;12.10;11.40;;;;;;;21.76;100.00;102376.40;2014827;71;30917;-78
2022/06/13 15:31:09;;;;;;;11.33;10.73;;;;;;;21.93;100.00;102379.09;2009507;71;31478;-78
2022/06/13 15:37:00;;;;;;;11.90;11.20;;;;;;;21.52;100.00;102377.91;2007903;71;30911;-79
2022/06/13 15:42:50;;;;;;;11.90;11.20;;;;;;;21.07;100.00;102372.20;1998997;71;31348;-79
2022/06/13 15:48:38;;;;;;;12.30;11.60;;;;;;;20.11;100.00;102374.30;2011241;71;30995;-79
2022/06/13 15:54:40;;;;;;;18.20;17.40;;;;;;;20.05;100.00;102362.87;2000645;71;31011;-79
2022/06/13 16:00:35;;;;;;;12.03;11.33;;;;;;;20.68;100.00;102357.88;1999122;71;31036;-79
2022/06/13 16:06:29;;;;;;;11.23;10.73;;;;;;;20.92;100.00;102345.75;2007007;71;30823;-79
2022/06/13 16:12:22;;;;;;;12.07;11.47;;;;;;;21.27;100.00;102334.14;2019761;70;31453;-79
2022/06/13 16:18:10;;;;;;;11.50;10.83;;;;;;;21.15;100.00;102332.48;2006399;71;30885;-79
2022/06/13 16:24:02;;;;;;;11.70;11.13;;;;;;;21.54;100.00;102329.77;2007680;71;30877;-79
2022/06/13 16:30:03;;;;;;;12.33;11.63;;;;;;;21.47;100.00;102329.97;2051235;69;31044;-78
2022/06/13 16:35:53;;;;;;;12.23;11.60;;;;;;;21.15;100.00;102335.30;2011555;71;30934;-79
2022/06/13 16:41:42;;;;;;;12.37;11.67;;;;;;;21.30;100.00;102333.52;2006209;71;30931;-80
2022/06/13 16:47:33;;;;;;;10.50;9.70;;;;;;;21.50;100.00;102332.14;1991679;71;30900;-77
2022/06/13 16:53:52;;;;;;;10.40;9.90;;;;;;;21.60;100.00;102331.89;2004637;71;30979;-78
2022/06/13 16:59:51;;;;;;;11.03;10.20;;;;;;;21.64;100.00;102322.42;2018646;71;30910;-78
2022/06/13 17:05:39;;;;;;;10.83;10.30;;;;;;;21.70;100.00;102319.70;1928183;70;30971;-67
2022/06/13 17:11:26;;;;;;;11.60;11.00;;;;;;;21.55;100.00;102305.98;2009824;71;30863;-69
2022/06/13 17:17:14;;;;;;;11.47;10.90;;;;;;;21.31;100.00;102312.55;2013024;71;30985;-68
2022/06/13 17:23:01;;;;;;;11.60;11.00;;;;;;;21.10;100.00;102310.80;2009122;71;30909;-68
2022/06/13 17:34:52;;;;;;;12.10;11.20;;;;;;;21.47;100.00;102299.70;2014786;71;31453;-69
2022/06/13 17:40:40;;;;;;;11.50;10.87;;;;;;;21.65;100.00;102304.27;2018591;71;31399;-69
2022/06/13 17:46:25;;;;;;;11.90;11.35;;;;;;;21.27;100.00;102298.81;2016687;71;30927;-69
2022/06/13 17:52:12;;;;;;;11.83;11.12;;;;;;;21.50;100.00;102301.88;2013175;71;30906;-69
2022/06/13 17:58:00;;;;;;;11.67;11.07;;;;;;;21.51;100.00;102293.66;2008143;71;31371;-69
2022/06/13 18:03:46;;;;;;;12.23;11.55;;;;;;;21.45;100.00;102299.19;2009165;71;30977;-70
2022/06/13 18:09:33;;;;;;;11.83;11.22;;;;;;;21.50;100.00;102293.39;2007740;71;31004;-66
2022/06/13 18:15:19;;;;;;;11.20;10.68;;;;;;;21.63;100.00;102295.88;2011579;71;30921;-67
2022/06/13 18:21:08;;;;;;;11.53;10.93;;;;;;;21.66;100.00;102298.05;2009483;71;31024;-68
2022/06/13 18:26:57;;;;;;;11.40;10.73;;;;;;;21.58;100.00;102286.95;1998288;71;30890;-70
2022/06/13 18:32:41;;;;;;;11.10;10.60;;;;;;;21.65;100.00;102284.48;2003738;71;33343;-68
2022/06/13 18:38:30;;;;;;;11.60;10.90;;;;;;;21.32;100.00;102283.97;2007692;71;30883;-68
2022/06/13 18:44:16;;;;;;;11.63;11.10;;;;;;;21.21;100.00;102285.41;2002562;71;30920;-68
2022/06/13 18:50:00;;;;;;;11.80;11.13;;;;;;;20.41;100.00;102280.55;2005825;70;30877;-67
2022/06/13 18:55:45;;;;;;;10.90;10.50;;;;;;;20.94;100.00;102266.30;2009364;71;30884;-69
2022/06/13 19:01:32;;;;;;;10.90;10.40;;;;;;;20.89;100.00;102268.10;2000773;71;30870;-68
2022/06/13 19:07:20;;;;;;;11.33;10.83;;;;;;;20.16;100.00;102267.55;2016451;71;31065;-67
2022/06/13 19:13:07;;;;;;;12.50;11.80;;;;;;;19.73;100.00;102273.52;2007878;71;31429;-66
2022/06/13 19:18:52;;;;;;;11.80;11.30;;;;;;;19.54;100.00;102268.56;2009825;71;31357;-68
2022/06/13 19:24:37;;;;;;;11.37;10.70;;;;;;;19.42;100.00;102270.45;2009798;71;30919;-70
2022/06/13 19:30:23;;;;;;;11.07;10.47;;;;;;;19.13;100.00;102273.22;2007555;71;31353;-70
2022/06/13 19:36:10;;;;;;;10.63;10.23;;;;;;;19.03;100.00;102278.48;1994815;71;30946;-70
2022/06/13 19:42:00;;;;;;;10.70;10.20;;;;;;;18.68;100.00;102279.89;2013001;71;30872;-69
2022/06/13 19:47:45;;;;;;;11.63;10.90;;;;;;;18.65;100.00;102285.54;1991574;71;30929;-68
2022/06/13 19:53:31;;;;;;;11.30;10.80;;;;;;;18.25;100.00;102294.55;1997069;71;30931;-69
2022/06/13 19:59:18;;;;;;;11.60;10.90;;;;;;;17.99;100.00;102290.39;1995215;71;30921;-68
2022/06/13 20:05:03;;;;;;;12.23;11.63;;;;;;;17.66;100.00;102300.63;2016548;70;33272;-69
2022/06/13 20:10:50;;;;;;;11.83;11.33;;;;;;;17.55;100.00;102299.84;2005413;71;30868;-67
2022/06/13 20:16:37;;;;;;;11.77;11.20;;;;;;;17.27;100.00;102307.16;1994813;71;30979;-68
2022/06/13 20:22:28;;;;;;;12.20;11.70;;;;;;;17.42;100.00;102309.53;2016408;71;30897;-68
2022/06/13 20:28:12;;;;;;;14.73;14.03;;;;;;;17.40;100.00;102318.28;2000182;71;31097;-69
2022/06/13 20:34:04;;;;;;;16.23;15.50;;;;;;;17.32;100.00;102323.13;2003505;71;30944;-70
2022/06/13 20:39:53;;;;;;;18.00;17.07;;;;;;;17.07;100.00;102331.78;2007178;71;32887;-70
2022/06/13 20:45:41;;;;;;;14.20;13.50;;;;;;;17.01;100.00;102332.38;2016530;71;32970;-69
2022/06/13 20:51:27;;;;;;;16.63;15.83;;;;;;;17.00;100.00;102332.09;2016688;71;30955;-68
2022/06/13 20:57:13;;;;;;;24.17;22.90;;;;;;;16.98;100.00;102340.55;1996941;71;32824;-68
2022/06/13 21:02:57;;;;;;;26.40;25.17;;;;;;;17.00;100.00;102345.29;2018430;71;32921;-70
2022/06/13 21:14:47;;;;;;;19.20;18.30;;;;;;;17.05;100.00;102336.27;2007681;71;33369;-68
2022/06/13 21:20:38;;;;;;;25.43;24.23;;;;;;;17.25;100.00;102342.27;1991013;71;30950;-67
2022/06/13 21:26:25;;;;;;;23.90;22.70;;;;;;;17.05;100.00;102340.48;2013467;71;30946;-67
2022/06/13 21:32:12;;;;;;;20.20;19.10;;;;;;;17.50;100.00;102339.83;2009748;71;30879;-67
2022/06/13 21:37:57;;;;;;;18.03;17.10;;;;;;;17.46;100.00;102336.74;2007988;71;30966;-68
2022/06/13 21:43:44;;;;;;;19.00;17.90;;;;;;;17.48;100.00;102325.22;2015021;70;30973;-67
2022/06/13 21:49:30;;;;;;;18.27;17.27;;;;;;;17.33;100.00;102331.00;2009230;71;33414;-68
2022/06/13 21:55:16;;;;;;;20.33;19.17;;;;;;;17.22;100.00;102331.64;2009290;71;31055;-67
2022/06/13 22:01:04;;;;;;;19.87;18.87;;;;;;;17.10;100.00;102336.80;2000636;71;32882;-65
2022/06/13 22:06:51;;;;;;;23.23;22.03;;;;;;;16.85;100.00;102342.05;2016527;71;30896;-67
2022/06/13 22:12:40;;;;;;;22.60;21.50;;;;;;;17.01;100.00;102334.34;2004221;71;33341;-67
2022/06/13 22:18:29;;;;;;;31.30;29.80;;;;;;;16.63;100.00;102334.61;2000203;71;31108;-68
2022/06/13 22:24:14;;;;;;;30.50;29.10;;;;;;;16.52;100.00;102345.00;2013177;71;32860;-70
2022/06/13 22:29:59;;;;;;;34.60;32.80;;;;;;;16.51;100.00;102342.51;2005409;71;31022;-66
2022/06/13 22:35:47;;;;;;;37.03;35.10;;;;;;;16.18;100.00;102339.84;2014811;71;33367;-69
2022/06/13 22:41:36;;;;;;;40.77;38.47;;;;;;;16.24;100.00;102339.55;2011024;71;33453;-68
2022/06/13 22:53:24;;;;;;;48.20;45.23;;;;;;;15.93;100.00;102335.17;2014753;71;32903;-68
2022/06/13 22:59:09;;;;;;;51.03;48.13;;;;;;;15.60;100.00;102339.47;1991325;71;32912;-66
2022/06/13 23:04:55;;;;;;;53.43;50.33;;;;;;;15.52;100.00;102340.04;2003868;71;32895;-67
2022/06/13 23:10:40;;;;;;;54.83;51.53;;;;;;;15.35;100.00;102331.91;2011303;71;33342;-67
2022/06/13 23:16:25;;;;;;;57.00;53.77;;;;;;;15.35;100.00;102329.11;2018286;71;32942;-65
2022/06/13 23:22:09;;;;;;;61.17;57.67;;;;;;;14.88;100.00;102339.18;2014756;71;32935;-68
2022/06/13 23:27:55;;;;;;;60.07;56.50;;;;;;;14.93;100.00;102336.36;2014628;71;32806;-68
2022/06/13 23:33:41;;;;;;;56.63;53.23;;;;;;;14.98;100.00;102327.98;2016496;71;32913;-68
2022/06/13 23:39:27;;;;;;;56.13;52.73;;;;;;;15.10;100.00;102319.33;2009111;71;32894;-68
2022/06/13 23:45:13;;;;;;;58.03;54.73;;;;;;;15.12;100.00;102312.03;2000568;71;32844;-68
2022/06/13 23:50:57;;;;;;;57.47;54.23;;;;;;;14.95;100.00;102316.50;1996965;71;33021;-68